My Meet Scores
Allison Mietus, Ultimate Gymnastics - MyMeetScores.com
Top100 | Top Teams | Upcoming Meets | Completed Meets | Latest | Add Scores | Help| Support | Bookmark and Share

Allison Mietus, Ultimate Gymnastics
Personal Bests
LevelVault BarsBeamFloorAA
39.5009.450 9.2509.45037.450
49.2509.250 9.3258.92535.925
59.3259.050 8.6758.85035.025
69.5009.425 9.4259.62537.800
Meet Scores
Date Meet Team Session Level Division Vault Bars Beam Floor AA
2021-05-14 Level 6 and Xcel Silver Regionals Ultimate Gymnastics of Gurnee 3A 6 Jr C1 9.050 12T 8.775 22 9.175 11 9.225 19T 36.225 16
2021-04-15 Illinois level 6 & Xcel Silver State Champion Ultimate Gymnastics of Gurnee 08 6 Multiple 9.100 11T 9.225 17T 9.250 25T 9.550 9T 37.125 8T
2021-02-19 Women's Midwest Open 2021 Ultimate Gymnastics of Gurnee 07B 6 Junior A 9.500 1 9.425 2 9.250 4 9.625 3 37.800 1
2021-01-21 King Arthur Invitational Ultimate Gymnastics 4 6 JR 8.700 9 8.250 12 9.050 9 9.300 2 35.300 10
2021-01-14 2021 Bravo Classic Ultimate Gymnastics 15 6 Jr 9.050 8 9.275 4 9.200 6T 9.375 3 36.900 3
2020-12-17 St Nick II Optional Ultimate Gymnastics 1 6 JrB 8.900 10T 9.000 5 9.425 1 9.225 9T 36.550 5
2020-12-04 Wish Classic Ultimate Gymnastics ALL 6 SR 9.300 2 9.325 1 9.200 2 8.200 13 36.025 6
2020-02-21 Kinetic Classic Ultimate Gymnastics 01 6 Younger 9.000 20 8.950 18T 9.100 29T 9.225 23T 36.275 17
2020-02-07 Harley Meet Womens - Midwest Twisters Ultimate Gymnastics of Gurnee O03 6 Jr A 9.100 3 8.800 4T 9.025 4 9.400 1 36.325 2
2020-01-24 King Arthur Invitational Ultimate Gymnastics 2 6 JR 8.750 3T 8.325 11 9.175 6 9.275 6T 35.525 7
2020-01-10 St Jude Benefit Meet Ultimate Gymnastics 2B 6 Jr A 8.475 13T 9.350 2 8.675 11 9.400 1 35.900 3T
2019-12-20 2019 Women's Hawaiian Pineapple Classic Ultimate Gymnastics 3A 6 Age 11 9.150 1 8.275 8 9.025 3 9.350 5 35.800 5
2019-12-06 Ultimate Wish Classic Ultimate Gymnastics 1 6 JR A 9.000 8T 8.900 5 9.375 4 9.225 4T 36.500 4
2019-11-08 Illinois Judges Cup Ultimate Gymnastics P1 6 All Ages 9.125 7 8.750 14T 8.800 25 9.400 6 36.075 9T
2019-03-22 Illinois Gymnastics State Championships Ultimate Gymnastics 2 5 JR B 9.150 20T 8.900 14T 8.100 24T 8.850 25T 35.000 26
2019-02-15 Women's Midwest Open Ultimate Gymnastics 05 5 Junior A 8.700 6 9.050 3 8.325 10 8.625 4 34.700 4
2019-01-25 King Arthur Invitational Ultimate Gymnastics 7 5 JR A 8.250 12 8.900 3 8.500 3 8.125 8 33.775 7
2019-01-18 2019 Bravo Classic Ultimate Gymnastics 2A 5 Child 8.700 18T 8.550 21 8.675 26 8.250 28 34.175 23
2019-01-11 St Jude Benefit Meet Ultimate Gymnastics 8A 5 Jr A 9.200 6T 8.550 10T 7.875 16 8.850 10 34.475 12
2018-12-14 Hawaiian Pineapple Classic Ultimate Gymnastics 4B 5 Age10 9.325 1 8.800 3 8.675 6T 8.225 12T 35.025 3
2018-11-30 Ultimate Wish Classic Ultimate Gymnastics 6 5 JR A 9.175 5T 8.550 11 7.750 18 8.225 17 33.700 17
2018-03-08 Level 4 & 5 State Ultimate Gymnastics All 4 Ch E 9.250 2 9.000 10T 9.325 5 8.100 27 35.675 12
2018-02-17 Women's Midwest Open Ultimate Gymnsatics 14 4 Jr A 8.850 3 9.250 2 9.100 4 8.725 9T 35.925 2
2018-01-26 King Arthur Invitational Ultimate Gymnsatics 6 4 JR B 8.875 8 8.800 7T 8.225 20 8.300 17 34.200 14
2018-01-19 2018 Bravo Classic Ultimate Gymnsatics 12B 4 Child 8.650 8T 8.100 19T 8.450 20 8.925 17 34.125 14
2017-12-01 Ultimate Wish Classic Ultimate Gymnsatics 12 4 Jr A 8.750 4* 8.750 1 8.150 14 8.850 6 34.500 3T
2017-11-16 Paul Hamm Thanksgiving Classic - Women Ultimate Gymnsatics 7 4 Younger 8.350 18T 9.050 17 8.850 18 8.850 16T 35.100 17
2017-11-10 Illinois NAWGJ Judges Cup 2017 Ultimate Gymnsatics G6 4 All Ages 8.650 7T 8.825 7 8.450 20 8.500 17 34.425 10
2017-03-30 2017 Illinois Level 3 & 5 State Ultimate Gymnsatics All 3 Ch F 9.400 12T 9.450 6 9.150 10T 9.450 5 37.450 8T
2017-02-17 Big Classic Ultimate Gymnsatics B 3 Child B 9.500 2T 8.575 22 9.125 4 9.425 2 36.625 4
2017-02-10 IGI Chicago Style Gymnastics Meet Ultimate Gymnsatics 232L 3 JrA 9.275 7 8.800 11 9.250 3 9.000 6 36.325 5
2017-02-03 2017 Gateway Challenge Ultimate Gymnsatics 4B 3 7 9.025 6 7.000 14 9.150 1 8.775 5T 33.950 9
2017-01-20 Sand Dollar/Whitlow Invitational - Gym A Ultimate Gymnsatics A09 3 Jr A 8.850 6 7.750 15 8.250 12 8.575 11 33.425 11
2016-12-16 2016 Aspire Classic Ultimate Gymnsatics 10 3 Younger 9.175 5 8.000 17T 8.475 6 8.750 11T 34.400 10T
2016-12-02 Ultimate Wish Classic Ultimate Gymnsatics 11 3 Jr B 8.400 20T 7.750 21 8.925 11 9.000 16 34.075 21
Get your scores on
a t-shirt, pin, or hoodie